Aurora, CO (80016)

8:22 AM MDT on August 30, 2015 (GMT -0600)
Greenfield | | Change Station
CLOSE
Current Station
Personal Weather Station
Location: Centennial, CO
Elevation: 5810 ft
Nearby Weather Stations

Elev 5810 ft 39.60 °N, 104.75 °W | Updated 8 seconds ago

Mostly Cloudy
Mostly Cloudy
69.8 °F
Feels Like 69.8 °F
N
3.8
Wind Variable Wind from SSW
Gusts 7.4 mph

Today
High -- | Low -- °F
--% Chance of Precip.
Yesterday
High -- | Low -- °F
Precip. -- in
6:25 AM 7:33 PM
Full, 99% visible
Pressure 29.92 in
Visibility 10.0 miles
Clouds Few 13000 ft
Scattered Clouds 18000 ft
Mostly Cloudy 24000 ft
Dew Point 47 °F
Humidity 44%
Rainfall 0.00 in
Snow Depth Not available.
UV 1 out of 12
Pollen 10.60 out of 12
Air Quality Not available.
Flu Activity Not available.
METAR KAPA 301353Z 23012KT 10SM FEW130 SCT180 BKN240 22/06 A3015 RMK AO2 SLP132 T02220061
Pressure 29.92 in
Visibility 10.0 miles
Clouds Few 13000 ft
Scattered Clouds 18000 ft
Mostly Cloudy 24000 ft
Dew Point 47 °F
Humidity 44%
Rainfall 0.00 in
Snow Depth Not available.
UV 1 out of 12
Pollen 10.60 out of 12
Air Quality Not available.
Flu Activity Not available.
METAR KAPA 301353Z 23012KT 10SM FEW130 SCT180 BKN240 22/06 A3015 RMK AO2 SLP132 T02220061

10-Day Weather Forecast

×

Almanac

Astronomy

Aug. 30, 2015 Rise Set
Actual Time
Civil Twilight
Nautical Twilight
Astronomical Twilight
Moon
Length of Visible Light
Length of Day
Tomorrow will be .
, % of the Moon is Illuminated

Today's Extremes

State Highs State Lows

Community

WunderPhotos

Upload Photos

1,850,974 photos uploaded!

WunderBlogs® & News

Nearby

Air Quality

  Air Quality AQ Index Pollutant
Not available.

Snow Depth

Station Depth Elevation

Earthquake Activity

City Distance Mag. Time & Date
Minimum magnitude displayed is 2.5.

Coastal Water Temperatures

Place Temperature

Stations

Nearby Weather Stations

Station Location Temp. Windchill Dew Point Humidity Wind Precip. Elev Updated Type